全部
Deniliquin Airport (Deniliquin, New South Wales) DNQ 天气
|
Deniliquin, New South Wales (DNQ / YDLQ)
晴天
多风 |
|
18 °C |
There is no TAF data available at DNQ or any nearby airports.
DNQ近期METAR历史数据
| Date | Time (AEST) | Flight Rules | Wind Dir. | Speed | Type | Height AGL (ft) | Visibility | Temp (°C) | Temp (°F) | Dew Point (°C) | Dew Point (°F) | Rel. Humid. | Pressure | Density Altitude | Remarks |
|---|---|---|---|---|---|---|---|---|---|---|---|---|---|---|---|
| 04-五月 | 13:00 | n/a | 320° | 14 kt | Missing | 18° | 64° | 8° | 46° | 52% | 1013 mb | 682 ft | |||
| 04-五月 | 12:00 | n/a | 340° | 11 kt | Missing | 18° | 64° | 10° | 50° | 59% | 1014 mb | 653 ft | |||
| 04-五月 | 11:00 | n/a | 350° | 11 kt | Missing | 17° | 62° | 9° | 48° | 59% | 1014 mb | 533 ft | |||
| 04-五月 | 10:00 | n/a | 350° | 7 kt | Missing | 15° | 59° | 9° | 48° | 67% | 1015 mb | 263 ft | |||
| 04-五月 | 09:00 | n/a | 340° | 9 kt | Missing | 12° | 53° | 9° | 48° | 82% | 1015 mb | -97 ft | |||
| 04-五月 | 08:00 | n/a | 350° | 8 kt | Missing | 11° | 51° | 9° | 48° | 87% | 1014 mb | -187 ft | |||
| 04-五月 | 07:00 | n/a | 360° | 7 kt | Missing | 10° | 50° | 8° | 46° | 87% | 1014 mb | -307 ft | |||
| 04-五月 | 06:00 | n/a | 360° | 7 kt | Missing | 11° | 51° | 9° | 48° | 87% | 1013 mb | -158 ft | |||
| 04-五月 | 05:00 | n/a | 350° | 7 kt | Missing | 10° | 50° | 9° | 48° | 93% | 1013 mb | -278 ft | |||
| 04-五月 | 04:00 | n/a | 350° | 7 kt | Missing | 11° | 51° | 10° | 50° | 94% | 1013 mb | -158 ft | |||
| 04-五月 | 03:00 | n/a | 350° | 7 kt | Missing | 12° | 53° | 11° | 51° | 94% | 1014 mb | -67 ft | |||
| 04-五月 | 02:00 | n/a | 360° | 6 kt | Missing | 12° | 53° | 11° | 51° | 94% | 1014 mb | -67 ft | |||
| 04-五月 | 01:00 | n/a | 360° | 5 kt | Missing | 13° | 55° | 11° | 51° | 88% | 1014 mb | 53 ft | |||
| 04-五月 | 00:00 | n/a | 340° | 5 kt | Missing | 13° | 55° | 11° | 51° | 88% | 1014 mb | 53 ft | |||
| 03-五月 | 23:00 | n/a | 10° | 4 kt | Missing | 14° | 57° | 12° | 53° | 88% | 1015 mb | 143 ft | |||
| 03-五月 | 22:00 | n/a | 360° | 3 kt | Missing | 15° | 59° | 12° | 53° | 82% | 1014 mb | 293 ft | |||
| 03-五月 | 21:00 | n/a | 360° | 5 kt | Missing | 15° | 59° | 12° | 53° | 82% | 1014 mb | 293 ft | |||
| 03-五月 | 20:00 | n/a | 360° | 6 kt | Missing | 16° | 60° | 12° | 53° | 77% | 1014 mb | 413 ft | |||
| 03-五月 | 19:00 | n/a | 10° | 4 kt | Missing | 16° | 60° | 13° | 55° | 82% | 1014 mb | 413 ft | |||
| 03-五月 | 18:00 | n/a | 280° | 4 kt | Missing | 16° | 60° | 13° | 55° | 82% | 1013 mb | 442 ft | |||
| 03-五月 | 17:00 | n/a | 300° | 7 kt | Missing | 17° | 62° | 13° | 55° | 77% | 1013 mb | 562 ft | |||
| 03-五月 | 16:00 | n/a | 280° | 5 kt | Missing | 16° | 60° | 14° | 57° | 88% | 1012 mb | 472 ft | |||
| 03-五月 | 15:00 | n/a | 280° | 7 kt | Missing | 16° | 60° | 14° | 57° | 88% | 1012 mb | 472 ft | |||
| 03-五月 | 14:00 | n/a | 280° | 9 kt | Missing | 17° | 62° | 14° | 57° | 82% | 1012 mb | 592 ft | Thunderstorms |
登录
| 您的浏览器不支持. 升级您的浏览器 |
